Time;durP1;ratioP1;P1;durP2;ratioP2;P2;SDS_P1;SDS_P2;PMS_P1;PMS_P2;Temp;Humidity;BMP_temperature;BMP_pressure;BME280_temperature;BME280_humidity;BME280_pressure;Samples;Min_cycle;Max_cycle;Signal;HPM_P1;HPM_P2
2023/04/03 00:00:00;;;;;;;2.28;0.95;;;3.00;96.50;;;;;;4219373;28;20128;-82
2023/04/03 00:02:01;;;;;;;2.08;0.80;;;3.60;96.70;;;;;;4219734;28;20115;-82
2023/04/03 00:04:02;;;;;;;4.53;0.90;;;3.90;96.80;;;;;;4219729;28;20043;-84
2023/04/03 00:06:06;;;;;;;1.30;0.85;;;3.40;96.60;;;;;;4219327;28;20051;-84
2023/04/03 00:08:09;;;;;;;0.95;0.60;;;3.00;96.70;;;;;;4218536;28;20048;-84
2023/04/03 00:10:11;;;;;;;1.40;0.60;;;4.20;96.90;;;;;;4219725;28;20044;-84
2023/04/03 00:12:12;;;;;;;3.33;1.15;;;3.00;96.70;;;;;;4219778;28;20092;-84
2023/04/03 00:14:14;;;;;;;1.52;0.60;;;3.70;96.70;;;;;;4219300;28;20509;-84
2023/04/03 00:16:15;;;;;;;1.75;0.60;;;3.90;96.90;;;;;;4202129;28;20468;-84
2023/04/03 00:18:17;;;;;;;3.53;0.80;;;2.90;96.50;;;;;;4220141;28;20083;-84
2023/04/03 00:20:18;;;;;;;4.88;1.45;;;4.00;97.00;;;;;;4219705;28;20112;-84
2023/04/03 00:22:19;;;;;;;1.77;1.20;;;2.90;96.70;;;;;;4219560;28;20079;-84
2023/04/03 00:24:21;;;;;;;2.53;0.80;;;3.30;96.80;;;;;;4219804;28;20067;-84
2023/04/03 00:26:23;;;;;;;5.38;1.25;;;3.80;96.90;;;;;;4219679;28;20044;-84
2023/04/03 00:28:26;;;;;;;1.25;0.50;;;2.90;96.70;;;;;;4226450;28;20053;-83
2023/04/03 00:30:28;;;;;;;2.15;0.50;;;2.80;96.80;;;;;;4236127;28;20532;-84
2023/04/03 00:32:29;;;;;;;2.40;0.82;;;2.80;96.60;;;;;;4235838;28;20479;-84
2023/04/03 00:34:30;;;;;;;1.70;0.90;;;3.90;96.90;;;;;;4236242;28;20043;-84
2023/04/03 00:36:30;;;;;;;1.52;0.55;;;3.60;97.00;;;;;;4218081;28;20557;-84
2023/04/03 00:38:31;;;;;;;2.40;0.68;;;2.80;96.80;;;;;;4236342;28;20116;-84
2023/04/03 00:40:37;;;;;;;3.38;0.68;;;2.70;96.80;;;;;;4236409;28;20046;-84
2023/04/03 00:42:40;;;;;;;1.50;0.50;;;3.40;96.80;;;;;;4236069;28;20043;-85
2023/04/03 00:44:40;;;;;;;1.77;0.75;;;2.70;96.60;;;;;;4236097;28;20399;-84
2023/04/03 00:46:41;;;;;;;1.60;0.50;;;3.30;96.80;;;;;;4218199;28;20048;-84
2023/04/03 00:48:48;;;;;;;2.15;0.50;;;3.00;96.80;;;;;;4235915;28;20071;-84
2023/04/03 00:50:50;;;;;;;1.10;0.38;;;2.60;96.60;;;;;;4236401;28;20479;-83
2023/04/03 00:52:52;;;;;;;2.05;0.60;;;2.60;96.70;;;;;;4235660;28;20463;-82
2023/04/03 00:54:56;;;;;;;2.10;0.60;;;3.30;97.00;;;;;;4236096;28;20036;-82
2023/04/03 00:56:58;;;;;;;1.52;0.60;;;3.60;97.10;;;;;;4218003;28;20059;-82
2023/04/03 00:59:06;;;;;;;2.70;0.63;;;2.20;96.90;;;;;;4236110;28;20376;-83
2023/04/03 01:01:11;;;;;;;1.38;0.65;;;3.60;97.10;;;;;;4236451;28;20043;-82
2023/04/03 01:03:12;;;;;;;2.83;0.47;;;2.90;97.00;;;;;;4236233;28;20047;-83
2023/04/03 01:05:16;;;;;;;3.03;0.90;;;3.10;97.40;;;;;;4235527;28;20100;-83
2023/04/03 01:07:21;;;;;;;2.75;0.60;;;2.90;97.20;;;;;;4235728;28;20055;-82
2023/04/03 01:09:22;;;;;;;3.80;1.05;;;3.30;97.30;;;;;;4202275;28;20052;-83
2023/04/03 01:11:23;;;;;;;2.28;0.45;;;2.40;97.20;;;;;;4218389;28;20451;-83
2023/04/03 01:13:28;;;;;;;3.92;1.05;;;2.40;97.10;;;;;;4217439;28;20064;-83
2023/04/03 01:15:34;;;;;;;1.70;0.95;;;3.20;97.30;;;;;;4218580;28;20055;-83
2023/04/03 01:17:38;;;;;;;2.00;0.55;;;2.30;97.40;;;;;;4233420;28;20399;-83
2023/04/03 01:19:45;;;;;;;1.25;0.52;;;2.90;97.50;;;;;;4185336;28;20056;-83
2023/04/03 01:22:01;;;;;;;2.50;1.15;;;2.20;97.40;;;;;;4218866;28;20040;-82
2023/04/03 01:24:16;;;;;;;1.65;0.70;;;2.80;97.60;;;;;;4219379;28;20052;-82
2023/04/03 01:26:19;;;;;;;1.95;0.80;;;2.20;97.50;;;;;;4218771;28;20042;-82
2023/04/03 01:28:27;;;;;;;3.88;0.90;;;2.20;97.70;;;;;;4225166;28;20040;-83
2023/04/03 01:30:36;;;;;;;1.88;0.60;;;2.20;97.60;;;;;;4218161;28;20043;-82
2023/04/03 01:32:37;;;;;;;5.63;1.08;;;2.60;97.80;;;;;;4201205;28;20056;-82
2023/04/03 01:34:39;;;;;;;2.28;0.73;;;2.20;97.90;;;;;;4235212;28;20480;-82
2023/04/03 01:36:40;;;;;;;3.28;1.10;;;2.10;98.00;;;;;;4201778;28;20546;-82
2023/04/03 01:38:41;;;;;;;1.30;0.52;;;2.80;98.30;;;;;;4236195;28;20043;-82
2023/04/03 01:40:42;;;;;;;5.57;1.15;;;2.10;98.30;;;;;;4236150;28;20092;-82
2023/04/03 01:42:44;;;;;;;2.65;0.70;;;3.00;98.50;;;;;;4218015;28;20166;-82
2023/04/03 01:44:45;;;;;;;3.55;0.73;;;2.10;98.30;;;;;;4235944;28;20043;-83
2023/04/03 01:46:47;;;;;;;5.95;1.15;;;2.10;98.50;;;;;;4218098;28;20063;-83
2023/04/03 01:48:48;;;;;;;4.72;0.80;;;2.50;98.90;;;;;;4217248;28;20482;-83
2023/04/03 01:50:49;;;;;;;2.58;0.60;;;3.20;98.90;;;;;;4201454;28;20124;-83
2023/04/03 01:52:51;;;;;;;3.55;0.70;;;2.00;98.60;;;;;;4236425;28;20046;-83
2023/04/03 01:54:51;;;;;;;1.80;0.98;;;2.50;99.20;;;;;;4235793;28;20044;-83
2023/04/03 01:56:52;;;;;;;5.28;0.82;;;2.00;99.10;;;;;;4217900;28;20170;-83
2023/04/03 01:58:55;;;;;;;4.43;0.70;;;2.00;99.00;;;;;;4218342;28;20075;-83
2023/04/03 02:00:57;;;;;;;4.03;0.80;;;2.40;99.30;;;;;;4218212;28;20048;-82
2023/04/03 02:03:00;;;;;;;4.45;0.82;;;1.90;99.30;;;;;;4236665;28;20051;-83
2023/04/03 02:05:02;;;;;;;4.43;1.05;;;2.60;99.60;;;;;;4199388;28;20436;-82
2023/04/03 02:07:04;;;;;;;2.10;0.90;;;1.90;99.50;;;;;;4236224;28;20040;-82
2023/04/03 02:09:05;;;;;;;3.75;0.90;;;1.90;99.60;;;;;;4217932;28;20106;-83
2023/04/03 02:11:07;;;;;;;5.43;0.90;;;1.90;99.90;;;;;;4201480;28;20060;-83
2023/04/03 02:13:07;;;;;;;7.20;0.80;;;2.40;99.90;;;;;;4235775;28;20040;-83
2023/04/03 02:15:09;;;;;;;4.80;1.20;;;2.50;99.90;;;;;;4217687;28;20075;-83
2023/04/03 02:17:11;;;;;;;8.25;0.93;;;1.80;99.90;;;;;;4235561;28;20048;-83
2023/04/03 02:19:13;;;;;;;1.73;0.65;;;2.20;99.90;;;;;;4235627;28;20051;-83
2023/04/03 02:21:15;;;;;;;2.78;0.70;;;1.70;99.90;;;;;;4201252;28;20044;-82
2023/04/03 02:23:17;;;;;;;3.92;0.90;;;1.70;99.90;;;;;;4235612;28;20035;-82
2023/04/03 02:26:19;;;;;;;3.30;0.80;;;1.70;99.90;;;;;;4255373;27;1325624;-83
2023/04/03 02:28:20;;;;;;;4.75;1.02;;;2.90;99.90;;;;;;4258443;27;20036;-82
2023/04/03 02:30:22;;;;;;;1.90;0.88;;;2.70;99.90;;;;;;4247952;28;20094;-83
2023/04/03 02:32:24;;;;;;;3.10;0.63;;;2.60;99.90;;;;;;4248195;28;20056;-83
2023/04/03 02:34:25;;;;;;;3.13;0.95;;;1.80;99.90;;;;;;4248309;28;20043;-83
2023/04/03 02:36:26;;;;;;;3.38;1.08;;;2.50;99.90;;;;;;4247843;28;20043;-83
2023/04/03 02:38:29;;;;;;;4.72;1.52;;;1.60;99.90;;;;;;4248427;28;20051;-83
2023/04/03 02:40:30;;;;;;;4.90;1.42;;;1.60;99.90;;;;;;4248783;28;20461;-83
2023/04/03 02:42:32;;;;;;;5.40;1.10;;;1.90;99.90;;;;;;4247598;28;20051;-82
2023/04/03 02:44:34;;;;;;;4.85;0.98;;;2.20;99.90;;;;;;4247240;28;20483;-83
2023/04/03 02:46:36;;;;;;;3.95;0.88;;;1.80;99.90;;;;;;4266653;27;20043;-83
2023/04/03 02:48:37;;;;;;;8.45;0.88;;;2.50;99.90;;;;;;4266356;27;20118;-82
2023/04/03 02:50:38;;;;;;;6.47;1.13;;;2.10;99.90;;;;;;4247686;28;20047;-82
2023/04/03 02:52:40;;;;;;;7.22;0.90;;;1.70;99.90;;;;;;4248207;28;20487;-82
2023/04/03 02:54:41;;;;;;;5.38;1.00;;;1.80;99.90;;;;;;4265916;27;20085;-82
2023/04/03 02:56:41;;;;;;;4.35;0.90;;;2.20;99.90;;;;;;4230727;28;20096;-82
2023/04/03 02:58:42;;;;;;;3.42;1.13;;;2.10;99.90;;;;;;4248008;28;20035;-82
2023/04/03 03:00:44;;;;;;;2.63;0.90;;;2.20;99.90;;;;;;4248627;28;20043;-83
2023/04/03 03:02:45;;;;;;;7.68;1.33;;;1.90;99.90;;;;;;4266408;27;20111;-83
2023/04/03 03:04:46;;;;;;;5.30;1.10;;;2.00;99.90;;;;;;4266610;27;20114;-82
2023/04/03 03:06:47;;;;;;;5.07;1.02;;;2.50;99.90;;;;;;4267607;27;20047;-83
2023/04/03 03:08:48;;;;;;;5.38;0.98;;;2.10;99.90;;;;;;4266839;27;20104;-82
2023/04/03 03:10:51;;;;;;;3.10;0.82;;;2.10;99.90;;;;;;4266727;27;20046;-83
2023/04/03 03:12:54;;;;;;;3.75;1.05;;;2.00;99.90;;;;;;4266596;27;20118;-82
2023/04/03 03:14:54;;;;;;;5.53;1.02;;;1.90;99.90;;;;;;4266855;27;20095;-83
2023/04/03 03:16:55;;;;;;;3.60;1.23;;;1.80;99.90;;;;;;4248995;28;20507;-83
2023/04/03 03:18:57;;;;;;;5.35;1.00;;;1.80;99.90;;;;;;4247403;28;20047;-82
2023/04/03 03:21:01;;;;;;;3.80;1.10;;;1.00;99.90;;;;;;4266789;27;20050;-82
2023/04/03 03:23:03;;;;;;;4.72;1.60;;;0.40;99.90;;;;;;4267442;27;20043;-82
2023/04/03 03:25:07;;;;;;;6.25;0.80;;;1.20;99.90;;;;;;4266017;27;20146;-82
2023/04/03 03:27:09;;;;;;;3.22;1.00;;;1.20;99.90;;;;;;4266745;27;20050;-82
2023/04/03 03:29:11;;;;;;;5.22;1.23;;;2.20;99.90;;;;;;4267011;27;20121;-82
2023/04/03 03:31:12;;;;;;;5.47;1.10;;;1.80;99.90;;;;;;4266622;27;20051;-82
2023/04/03 03:33:13;;;;;;;4.78;0.90;;;1.00;99.90;;;;;;4266766;27;20039;-83
2023/04/03 03:35:17;;;;;;;5.03;1.60;;;1.70;99.90;;;;;;4267080;27;20035;-82
2023/04/03 03:37:19;;;;;;;5.72;1.40;;;1.50;99.90;;;;;;4257769;27;20039;-83
2023/04/03 03:39:21;;;;;;;7.38;1.63;;;0.80;99.90;;;;;;4236935;28;20047;-83
2023/04/03 03:41:24;;;;;;;5.80;1.77;;;0.80;99.90;;;;;;4237587;28;20075;-83
2023/04/03 03:43:25;;;;;;;4.43;1.55;;;1.60;99.90;;;;;;4237141;28;20105;-83
2023/04/03 03:45:27;;;;;;;3.28;1.08;;;1.90;99.90;;;;;;4255129;27;20441;-83
2023/04/03 03:47:29;;;;;;;3.65;1.25;;;0.80;99.90;;;;;;4255333;27;20078;-83
2023/04/03 03:49:29;;;;;;;5.32;1.00;;;1.50;99.90;;;;;;4256119;27;20112;-82
2023/04/03 03:51:30;;;;;;;3.47;1.10;;;1.40;99.90;;;;;;4255800;27;20051;-82
2023/04/03 03:53:33;;;;;;;3.28;0.95;;;1.60;99.90;;;;;;4255518;27;20088;-83
2023/04/03 03:55:34;;;;;;;2.78;0.90;;;0.60;99.90;;;;;;4255703;27;20058;-82
2023/04/03 03:57:37;;;;;;;2.85;1.00;;;0.60;99.90;;;;;;4237742;28;20044;-83
2023/04/03 03:59:37;;;;;;;3.53;0.95;;;0.90;99.90;;;;;;4256601;27;20051;-83
2023/04/03 04:01:39;;;;;;;2.13;0.93;;;1.40;99.90;;;;;;4255496;27;20043;-82
2023/04/03 04:03:42;;;;;;;8.13;1.10;;;1.30;99.90;;;;;;4237471;28;20467;-82
2023/04/03 04:05:45;;;;;;;5.13;1.20;;;1.10;99.90;;;;;;4255351;27;20039;-82
2023/04/03 04:07:47;;;;;;;9.02;1.33;;;1.20;99.90;;;;;;4256235;27;20039;-82
2023/04/03 04:09:49;;;;;;;4.00;1.20;;;1.10;99.90;;;;;;4238113;28;20063;-84
2023/04/03 04:11:50;;;;;;;4.03;1.00;;;0.80;99.90;;;;;;4255692;27;20051;-83
2023/04/03 04:13:53;;;;;;;1.83;1.08;;;0.90;99.90;;;;;;4255123;27;20053;-83
2023/04/03 04:15:55;;;;;;;4.28;1.02;;;0.30;99.90;;;;;;4256259;27;20403;-82
2023/04/03 04:18:01;;;;;;;1.63;0.90;;;1.40;99.90;;;;;;4255410;27;20063;-83
2023/04/03 04:20:04;;;;;;;4.40;0.90;;;1.30;99.90;;;;;;4255239;27;20629;-82
2023/04/03 04:22:07;;;;;;;6.88;2.05;;;0.20;99.90;;;;;;4255650;27;20050;-82
2023/04/03 04:24:08;;;;;;;9.60;1.58;;;0.10;99.90;;;;;;4237414;28;20055;-82
2023/04/03 04:26:13;;;;;;;7.93;1.73;;;0.20;99.90;;;;;;4255273;27;20058;-82
2023/04/03 04:28:15;;;;;;;5.05;1.92;;;0.80;99.90;;;;;;4236348;28;20038;-82
2023/04/03 04:30:15;;;;;;;2.83;1.00;;;1.10;99.90;;;;;;4219637;28;20052;-82
2023/04/03 04:32:16;;;;;;;6.53;1.70;;;0.30;99.90;;;;;;4220620;28;20131;-82
2023/04/03 04:34:21;;;;;;;5.05;1.20;;;0.20;99.90;;;;;;4256439;27;20043;-82
2023/04/03 04:36:21;;;;;;;4.95;1.27;;;0.00;99.90;;;;;;4238261;28;20049;-82
2023/04/03 04:38:28;;;;;;;10.35;1.50;;;1.00;99.90;;;;;;4239268;28;20542;-83
2023/04/03 04:40:30;;;;;;;3.05;0.93;;;0.20;99.90;;;;;;4238677;28;20103;-82
2023/04/03 04:42:33;;;;;;;4.72;1.85;;;0.20;99.90;;;;;;4240526;28;20039;-82
2023/04/03 04:44:35;;;;;;;4.90;1.30;;;1.00;99.90;;;;;;4222847;28;20136;-84
2023/04/03 04:46:37;;;;;;;6.88;1.83;;;0.60;99.90;;;;;;4256502;27;20051;-83
2023/04/03 04:48:40;;;;;;;2.47;1.13;;;1.60;99.90;;;;;;4255484;27;20039;-84
2023/04/03 04:50:41;;;;;;;2.85;1.88;;;0.10;99.90;;;;;;4255285;27;20042;-84
2023/04/03 04:52:41;;;;;;;3.35;1.60;;;0.20;99.90;;;;;;4255837;27;20043;-84
2023/04/03 04:54:43;;;;;;;6.03;1.40;;;0.70;99.90;;;;;;4255033;27;20082;-83
2023/04/03 04:56:44;;;;;;;4.15;1.40;;;0.40;99.90;;;;;;4219687;28;20062;-84
2023/04/03 04:58:46;;;;;;;4.07;1.55;;;0.10;99.90;;;;;;4245186;27;20043;-84
2023/04/03 05:00:47;;;;;;;5.75;1.38;;;1.30;99.90;;;;;;4211089;28;20056;-84
2023/04/03 05:02:49;;;;;;;5.38;1.20;;;0.10;99.90;;;;;;4236369;28;20157;-82
2023/04/03 05:04:58;;;;;;;6.97;1.27;;;0.20;99.90;;;;;;4221460;28;20048;-83
2023/04/03 05:07:00;;;;;;;7.75;1.42;;;1.10;99.90;;;;;;4222696;28;20043;-81
2023/04/03 05:09:02;;;;;;;3.00;1.40;;;0.10;99.90;;;;;;4231427;28;20055;-81
2023/04/03 05:11:03;;;;;;;5.10;1.95;;;0.00;99.90;;;;;;4260755;27;20039;-82
2023/04/03 05:13:04;;;;;;;4.60;1.25;;;0.10;99.90;;;;;;4243853;28;20051;-82
2023/04/03 05:15:06;;;;;;;2.55;1.05;;;0.00;99.90;;;;;;4219280;28;20051;-83
2023/04/03 05:17:08;;;;;;;5.68;1.98;;;-0.70;99.90;;;;;;4217790;28;20056;-83
2023/04/03 05:19:09;;;;;;;6.43;1.40;;;0.50;99.90;;;;;;4218359;28;20079;-82
2023/04/03 05:21:11;;;;;;;4.80;1.40;;;0.90;99.90;;;;;;4253829;27;20038;-82
2023/04/03 05:23:12;;;;;;;5.90;1.30;;;0.00;99.90;;;;;;4217369;28;20051;-82
2023/04/03 05:25:12;;;;;;;5.55;1.33;;;0.00;99.90;;;;;;4217585;28;20110;-83
2023/04/03 05:27:14;;;;;;;6.68;1.98;;;0.50;99.90;;;;;;4252825;27;20058;-82
2023/04/03 05:29:15;;;;;;;5.13;1.50;;;1.00;99.90;;;;;;4252516;27;20464;-82
2023/04/03 05:31:17;;;;;;;7.32;1.38;;;0.60;99.90;;;;;;4217865;28;20059;-83
2023/04/03 05:33:19;;;;;;;5.53;1.58;;;1.00;99.90;;;;;;4217668;28;20040;-83
2023/04/03 05:35:19;;;;;;;2.75;1.05;;;0.00;99.90;;;;;;4218388;28;20050;-83
2023/04/03 05:37:22;;;;;;;4.15;1.80;;;0.00;99.90;;;;;;4252214;27;20038;-82
2023/04/03 05:39:25;;;;;;;4.30;1.40;;;1.10;99.90;;;;;;4222226;28;20052;-84
2023/04/03 05:41:28;;;;;;;9.75;2.22;;;0.90;99.90;;;;;;4235374;28;20047;-84
2023/04/03 05:43:31;;;;;;;13.73;2.58;;;-0.10;99.90;;;;;;4217305;28;20119;-83
2023/04/03 05:45:32;;;;;;;4.53;1.30;;;0.00;99.90;;;;;;4252313;27;20077;-83
2023/04/03 05:47:33;;;;;;;3.90;1.30;;;1.00;99.90;;;;;;4252189;27;20078;-83
2023/04/03 05:49:34;;;;;;;6.00;1.50;;;0.50;99.90;;;;;;4252725;27;20043;-83
2023/04/03 05:51:38;;;;;;;4.15;1.65;;;0.00;99.90;;;;;;4233700;28;20073;-83
2023/04/03 05:53:41;;;;;;;4.55;1.95;;;0.10;99.90;;;;;;4234680;28;20073;-83
2023/04/03 05:55:42;;;;;;;5.85;1.63;;;0.40;99.90;;;;;;4234607;28;20097;-84
2023/04/03 05:57:44;;;;;;;5.15;1.30;;;-0.10;99.90;;;;;;4234135;28;20044;-84
2023/04/03 05:59:47;;;;;;;4.78;1.38;;;0.10;99.90;;;;;;4217095;28;20051;-83
2023/04/03 06:01:49;;;;;;;4.22;1.50;;;1.00;99.90;;;;;;4217689;28;20085;-84
2023/04/03 06:03:54;;;;;;;4.68;1.25;;;0.20;99.90;;;;;;4251735;27;20046;-83
2023/04/03 06:05:55;;;;;;;4.50;1.50;;;0.20;99.90;;;;;;4234209;28;20479;-83
2023/04/03 06:07:57;;;;;;;5.05;1.23;;;0.20;99.90;;;;;;4251402;27;20060;-84
2023/04/03 06:10:01;;;;;;;5.57;1.70;;;0.20;99.90;;;;;;4233520;28;20399;-84
2023/04/03 06:12:03;;;;;;;5.43;1.70;;;0.90;99.90;;;;;;4233809;28;20487;-84
2023/04/03 06:14:03;;;;;;;6.25;1.83;;;1.20;99.90;;;;;;4234639;28;20758;-84
2023/04/03 06:16:05;;;;;;;4.50;1.80;;;0.80;99.90;;;;;;4252172;27;20093;-84
2023/04/03 06:18:06;;;;;;;5.85;1.75;;;0.40;99.90;;;;;;4233753;28;20093;-84
2023/04/03 06:20:07;;;;;;;5.32;1.60;;;0.50;99.90;;;;;;4252384;27;20410;-84
2023/04/03 06:22:08;;;;;;;4.72;1.45;;;0.40;99.90;;;;;;4251895;27;20096;-84
2023/04/03 06:24:15;;;;;;;2.63;1.50;;;0.50;99.90;;;;;;4217047;28;20044;-84
2023/04/03 06:26:17;;;;;;;6.97;1.67;;;0.50;99.90;;;;;;4216399;28;20056;-84
2023/04/03 06:28:19;;;;;;;42.13;2.67;;;0.50;99.90;;;;;;4252162;28;20158;-84
2023/04/03 06:30:21;;;;;;;30.45;2.78;;;1.70;99.90;;;;;;4216945;28;20043;-82
2023/04/03 06:32:23;;;;;;;4.40;1.45;;;-0.10;99.90;;;;;;4233540;28;20566;-82
2023/04/03 06:34:25;;;;;;;4.90;1.20;;;1.90;99.90;;;;;;4233608;28;20515;-82
2023/04/03 06:36:27;;;;;;;2.70;1.65;;;0.70;99.90;;;;;;4216628;28;20074;-84
2023/04/03 06:38:35;;;;;;;4.32;1.33;;;0.80;99.90;;;;;;4251691;28;20039;-84
2023/04/03 06:40:36;;;;;;;5.82;1.67;;;1.50;99.90;;;;;;4251016;28;20096;-84
2023/04/03 06:42:43;;;;;;;7.65;1.58;;;1.00;99.90;;;;;;4232711;28;20080;-84
2023/04/03 06:44:45;;;;;;;6.45;1.45;;;1.60;99.90;;;;;;4251566;28;20047;-83
2023/04/03 06:46:49;;;;;;;4.93;1.55;;;1.10;99.90;;;;;;4250816;28;20050;-84
2023/04/03 06:48:54;;;;;;;5.78;1.73;;;1.30;99.90;;;;;;4216102;28;20048;-84
2023/04/03 06:50:55;;;;;;;6.97;1.48;;;1.30;99.90;;;;;;4215993;28;20078;-84
2023/04/03 06:52:57;;;;;;;6.57;1.38;;;1.40;99.90;;;;;;4216863;28;20144;-84
2023/04/03 06:54:59;;;;;;;7.68;1.95;;;0.90;99.90;;;;;;4217411;28;20048;-83
2023/04/03 06:57:00;;;;;;;5.00;1.48;;;1.60;99.90;;;;;;4229189;28;20381;-83
2023/04/03 06:59:03;;;;;;;9.88;3.03;;;2.00;99.90;;;;;;4231510;28;20044;-83
2023/04/03 07:01:04;;;;;;;6.93;1.77;;;2.80;99.90;;;;;;4227628;28;20052;-83
2023/04/03 07:03:07;;;;;;;2.72;1.60;;;2.10;99.90;;;;;;4253244;28;20473;-85
2023/04/03 07:05:08;;;;;;;7.85;2.60;;;2.20;99.90;;;;;;4216418;28;20097;-83
2023/04/03 07:07:10;;;;;;;9.43;1.80;;;2.40;99.90;;;;;;4262903;27;20040;-83
2023/04/03 07:09:11;;;;;;;38.35;6.00;;;3.50;99.90;;;;;;4251275;28;20043;-84
2023/04/03 07:11:13;;;;;;;7.80;2.38;;;3.80;99.90;;;;;;4250576;27;20039;-84
2023/04/03 07:13:15;;;;;;;7.60;2.20;;;2.80;99.90;;;;;;4253376;27;20436;-83
2023/04/03 07:15:16;;;;;;;5.15;1.55;;;3.00;99.90;;;;;;4216953;28;20040;-83
2023/04/03 07:17:17;;;;;;;5.75;1.77;;;3.20;99.90;;;;;;4233289;28;20548;-83
2023/04/03 07:19:18;;;;;;;6.35;1.90;;;3.20;99.90;;;;;;4234248;28;20112;-83
2023/04/03 07:21:19;;;;;;;5.25;1.60;;;3.50;99.90;;;;;;4235894;28;20044;-83
2023/04/03 07:23:20;;;;;;;5.63;1.58;;;3.60;99.90;;;;;;4253771;27;20039;-84
2023/04/03 07:25:21;;;;;;;8.63;2.05;;;3.70;99.90;;;;;;4252143;27;20047;-84
2023/04/03 07:27:23;;;;;;;8.80;2.20;;;4.00;99.90;;;;;;4252437;27;20058;-83
2023/04/03 07:29:24;;;;;;;6.20;1.75;;;4.50;99.90;;;;;;4217775;28;20129;-84
2023/04/03 07:31:25;;;;;;;7.18;1.30;;;4.40;99.90;;;;;;4217678;28;20047;-84
2023/04/03 07:33:26;;;;;;;3.72;1.50;;;4.40;99.90;;;;;;4234409;28;20395;-84
2023/04/03 07:35:26;;;;;;;9.02;1.92;;;4.70;99.90;;;;;;4217352;28;20489;-83
2023/04/03 07:37:27;;;;;;;9.77;2.38;;;4.70;99.90;;;;;;4251953;27;20043;-84
2023/04/03 07:39:29;;;;;;;3.25;1.48;;;4.90;99.90;;;;;;4252636;27;20046;-83
2023/04/03 07:41:30;;;;;;;6.70;1.98;;;5.00;99.90;;;;;;4251771;27;20027;-84
2023/04/03 07:43:30;;;;;;;6.18;1.40;;;5.10;99.90;;;;;;4251902;27;20480;-84
2023/04/03 07:45:34;;;;;;;18.38;2.25;;;5.80;99.90;;;;;;4216685;28;20177;-83
2023/04/03 07:47:35;;;;;;;4.90;1.55;;;5.00;99.90;;;;;;4251435;27;20072;-84
2023/04/03 07:49:39;;;;;;;3.05;1.10;;;5.50;99.90;;;;;;4232044;28;20473;-84
2023/04/03 07:51:41;;;;;;;5.47;1.60;;;5.60;99.90;;;;;;4248528;27;20041;-84
2023/04/03 07:53:43;;;;;;;4.22;1.30;;;5.70;99.90;;;;;;4215185;28;20040;-84
2023/04/03 07:55:47;;;;;;;5.60;1.00;;;5.90;99.90;;;;;;4215648;28;20451;-84
2023/04/03 07:57:50;;;;;;;6.50;1.60;;;5.90;99.90;;;;;;4244015;27;20414;-84
2023/04/03 07:59:51;;;;;;;3.38;1.10;;;5.80;99.90;;;;;;4215917;28;20102;-84
2023/04/03 08:01:54;;;;;;;4.90;1.27;;;5.90;99.90;;;;;;4216625;28;20454;-84
2023/04/03 08:03:56;;;;;;;3.58;1.20;;;6.10;99.90;;;;;;4216697;28;20130;-84
2023/04/03 08:06:05;;;;;;;10.00;2.67;;;6.30;99.90;;;;;;4250878;27;20400;-83
2023/04/03 08:08:08;;;;;;;4.35;1.52;;;6.30;99.90;;;;;;4232666;28;20051;-84
2023/04/03 08:10:09;;;;;;;11.10;2.63;;;6.50;99.90;;;;;;4251120;27;20499;-84
2023/04/03 08:12:11;;;;;;;9.68;3.03;;;6.70;99.90;;;;;;4250150;27;20051;-84
2023/04/03 08:14:16;;;;;;;3.22;1.10;;;6.80;99.90;;;;;;4232025;28;20052;-84
2023/04/03 08:16:20;;;;;;;6.85;2.10;;;7.10;99.80;;;;;;4250570;27;20111;-84
2023/04/03 08:18:24;;;;;;;5.28;1.30;;;7.50;99.70;;;;;;4232192;28;20047;-84
2023/04/03 08:20:26;;;;;;;4.72;1.45;;;7.80;99.30;;;;;;4215916;28;20044;-84
2023/04/03 08:22:27;;;;;;;5.13;1.17;;;7.50;98.70;;;;;;4233338;28;20054;-83
2023/04/03 08:24:28;;;;;;;4.82;1.40;;;8.20;98.50;;;;;;4251289;27;20043;-83
2023/04/03 08:26:30;;;;;;;3.60;1.55;;;8.20;97.90;;;;;;4252314;27;20051;-83
2023/04/03 08:28:32;;;;;;;5.68;2.33;;;8.40;97.60;;;;;;4232615;28;20126;-82
2023/04/03 08:30:34;;;;;;;6.15;1.30;;;8.60;97.10;;;;;;4250628;27;20047;-83
2023/04/03 08:32:35;;;;;;;6.13;1.50;;;8.50;96.70;;;;;;4249966;27;20074;-83
2023/04/03 08:34:39;;;;;;;5.60;1.60;;;8.60;96.30;;;;;;4214332;28;20131;-84
2023/04/03 08:36:40;;;;;;;4.65;1.38;;;8.70;96.20;;;;;;4249905;27;20035;-83
2023/04/03 08:38:40;;;;;;;5.93;1.70;;;9.00;96.20;;;;;;4214465;28;20055;-83
2023/04/03 08:40:42;;;;;;;6.22;1.67;;;9.30;95.70;;;;;;4214677;28;20162;-83
2023/04/03 08:43:04;;;;;;;3.08;1.15;;;9.50;95.00;;;;;;4232522;28;20050;-83
2023/04/03 08:45:15;;;;;;;4.25;1.50;;;9.80;94.30;;;;;;4244791;28;20086;-84
2023/04/03 09:54:56;;;;;;;6.43;0.98;;;17.20;51.80;;;;;;2701163;29;22227;-86
2023/04/03 09:57:05;;;;;;;1.08;0.63;;;17.00;51.30;;;;;;4009910;29;20053;-86
2023/04/03 09:59:14;;;;;;;4.38;0.70;;;16.80;54.10;;;;;;4020606;29;20053;-86
2023/04/03 10:01:36;;;;;;;2.80;0.70;;;16.60;54.50;;;;;;4006449;29;20050;-86
2023/04/03 10:03:39;;;;;;;3.50;0.65;;;16.80;52.90;;;;;;4020803;29;20098;-86
2023/04/03 10:05:42;;;;;;;5.75;0.68;;;16.90;55.00;;;;;;4019044;29;20093;-87
2023/04/03 10:07:42;;;;;;;3.35;1.05;;;16.70;54.00;;;;;;4019716;29;20576;-87
2023/04/03 10:09:58;;;;;;;1.38;0.70;;;16.50;54.10;;;;;;4021979;29;20112;-87
2023/04/03 10:12:08;;;;;;;3.67;0.93;;;16.30;50.40;;;;;;4020660;29;20053;-86
2023/04/03 10:14:16;;;;;;;3.08;1.27;;;16.10;53.60;;;;;;4021347;29;20056;-87
2023/04/03 10:16:27;;;;;;;3.92;1.10;;;15.90;51.60;;;;;;4019595;29;20050;-87
2023/04/03 10:18:54;;;;;;;4.32;0.80;;;16.00;53.30;;;;;;4020794;29;20120;-86
2023/04/03 10:21:05;;;;;;;2.60;0.90;;;16.10;50.30;;;;;;4019933;29;20072;-87
2023/04/03 10:23:16;;;;;;;6.97;1.70;;;16.30;53.40;;;;;;4021054;29;20517;-86
2023/04/03 10:25:37;;;;;;;2.45;0.80;;;16.60;53.70;;;;;;4004359;29;20157;-87
2023/04/03 10:28:01;;;;;;;2.63;0.40;;;16.70;49.80;;;;;;4019526;29;20163;-87
2023/04/03 10:30:32;;;;;;;3.35;0.60;;;16.90;51.60;;;;;;4004587;29;20065;-87
2023/04/03 10:33:02;;;;;;;1.75;0.40;;;17.30;50.10;;;;;;4004119;29;20079;-87
2023/04/03 10:35:15;;;;;;;0.82;0.50;;;17.20;50.20;;;;;;4004221;29;20111;-87
2023/04/03 10:38:04;;;;;;;0.90;0.50;;;17.20;49.40;;;;;;4020838;29;20060;-87
2023/04/03 10:40:32;;;;;;;3.10;0.57;;;17.30;48.70;;;;;;4004402;29;20061;-87
2023/04/03 10:42:53;;;;;;;3.28;1.08;;;17.60;50.00;;;;;;4003784;29;20411;-87
2023/04/03 10:45:00;;;;;;;1.20;0.70;;;17.70;47.70;;;;;;4019572;29;20434;-87
2023/04/03 10:47:04;;;;;;;1.90;0.77;;;17.80;50.00;;;;;;4037232;29;20084;-87
2023/04/03 10:49:30;;;;;;;1.60;0.40;;;18.00;48.30;;;;;;4039560;29;20051;-87
2023/04/03 10:51:30;;;;;;;2.42;0.65;;;18.00;44.50;;;;;;4028003;29;20053;-87
2023/04/03 10:53:35;;;;;;;1.45;0.82;;;17.70;47.90;;;;;;4023667;29;20041;-87
2023/04/03 10:55:50;;;;;;;2.92;0.65;;;17.80;46.60;;;;;;4022195;29;20157;-87
2023/04/03 10:57:53;;;;;;;2.38;0.60;;;17.70;45.70;;;;;;4022440;29;20060;-87
2023/04/03 11:00:09;;;;;;;3.47;0.60;;;17.60;46.80;;;;;;4006594;29;20480;-88
2023/04/03 11:02:30;;;;;;;2.15;0.60;;;17.90;45.10;;;;;;3992386;29;20244;-87
2023/04/03 11:04:36;;;;;;;1.70;0.50;;;18.30;42.60;;;;;;3993142;29;20061;-87
2023/04/03 11:06:44;;;;;;;2.05;0.60;;;18.50;45.10;;;;;;3992176;29;20097;-88
2023/04/03 11:08:56;;;;;;;10.13;0.87;;;18.60;44.50;;;;;;4007135;29;20089;-87
2023/04/03 11:11:05;;;;;;;4.25;1.38;;;18.50;43.00;;;;;;4007139;29;20182;-88
2023/04/03 11:13:31;;;;;;;4.53;0.60;;;18.50;43.90;;;;;;3992871;29;20060;-87
2023/04/03 11:15:33;;;;;;;2.88;1.38;;;18.60;42.70;;;;;;3991813;29;20106;-87
2023/04/03 11:17:43;;;;;;;2.72;0.70;;;18.80;44.90;;;;;;3991455;29;20064;-87
2023/04/03 11:20:00;;;;;;;3.33;0.57;;;18.60;43.20;;;;;;3998265;29;20050;-87
2023/04/03 11:22:21;;;;;;;1.13;0.60;;;18.60;42.60;;;;;;3991318;29;20865;-88
2023/04/03 11:24:29;;;;;;;0.47;0.40;;;18.70;43.10;;;;;;4008280;29;20064;-87
2023/04/03 11:26:38;;;;;;;3.03;0.73;;;18.90;43.60;;;;;;3993914;29;20046;-87
2023/04/03 11:28:39;;;;;;;2.55;0.90;;;18.70;42.00;;;;;;3997618;29;20373;-86
2023/04/03 11:30:48;;;;;;;1.13;0.47;;;18.60;43.90;;;;;;4006583;29;20096;-87
2023/04/03 11:33:07;;;;;;;1.05;0.50;;;18.90;42.80;;;;;;4006817;29;20064;-87
2023/04/03 11:35:08;;;;;;;;;;;18.90;44.30;;;;;;4006950;29;20485;-87
2023/04/03 11:37:39;;;;;;;2.25;0.65;;;19.10;42.20;;;;;;4008370;29;20032;-87
2023/04/03 11:39:50;;;;;;;2.47;1.00;;;19.30;42.10;;;;;;4007431;29;20106;-87
2023/04/03 11:41:51;;;;;;;2.47;0.50;;;19.00;42.70;;;;;;4006500;29;20506;-87
2023/04/03 11:44:01;;;;;;;1.48;0.50;;;19.50;43.70;;;;;;4006943;29;20565;-87
2023/04/03 11:46:05;;;;;;;14.77;1.15;;;19.60;41.80;;;;;;4008066;29;20046;-87
2023/04/03 11:48:31;;;;;;;2.75;0.60;;;19.60;42.80;;;;;;3992773;29;20058;-87
2023/04/03 11:50:41;;;;;;;1.90;0.70;;;19.50;40.70;;;;;;3990874;29;20475;-87
2023/04/03 11:52:46;;;;;;;1.15;0.35;;;19.50;40.60;;;;;;3992863;29;20426;-87
2023/04/03 11:54:48;;;;;;;2.90;0.40;;;19.70;41.80;;;;;;3992179;29;20054;-87
2023/04/03 11:56:48;;;;;;;2.15;0.45;;;19.40;41.90;;;;;;3992219;29;20138;-87
2023/04/03 11:59:21;;;;;;;1.73;0.90;;;19.40;42.10;;;;;;4006558;29;20042;-88
2023/04/03 12:01:54;;;;;;;1.45;0.45;;;19.50;41.00;;;;;;4006509;29;20574;-87